sensor_id;sensor_type;location;lat;lon;timestamp;pressure;altitude;pressure_sealevel;temperature;humidity
59391;BME280;53405;57.012;40.984;2023-07-09T00:01:41;99813.19;;;17.73;90.84
59391;BME280;53405;57.012;40.984;2023-07-09T00:04:12;99808.56;;;17.80;90.61
59391;BME280;53405;57.012;40.984;2023-07-09T00:06:40;99801.38;;;17.69;90.51
59391;BME280;53405;57.012;40.984;2023-07-09T00:09:12;99812.84;;;17.69;90.40
59391;BME280;53405;57.012;40.984;2023-07-09T00:11:41;99813.28;;;17.66;90.28
59391;BME280;53405;57.012;40.984;2023-07-09T00:14:11;99815.84;;;17.61;90.99
59391;BME280;53405;57.012;40.984;2023-07-09T00:16:39;99813.25;;;17.55;91.17
59391;BME280;53405;57.012;40.984;2023-07-09T00:19:12;99822.28;;;17.54;91.47
59391;BME280;53405;57.012;40.984;2023-07-09T00:21:49;99818.44;;;17.49;91.40
59391;BME280;53405;57.012;40.984;2023-07-09T00:24:20;99816.81;;;17.48;91.33
59391;BME280;53405;57.012;40.984;2023-07-09T00:26:48;99816.47;;;17.45;91.65
59391;BME280;53405;57.012;40.984;2023-07-09T00:29:16;99808.00;;;17.36;92.15
59391;BME280;53405;57.012;40.984;2023-07-09T00:31:44;99805.81;;;17.33;92.59
59391;BME280;53405;57.012;40.984;2023-07-09T00:34:14;99809.63;;;17.37;92.25
59391;BME280;53405;57.012;40.984;2023-07-09T00:36:45;99807.19;;;17.36;92.46
59391;BME280;53405;57.012;40.984;2023-07-09T00:39:17;99806.28;;;17.42;91.91
59391;BME280;53405;57.012;40.984;2023-07-09T00:41:46;99800.50;;;17.45;91.83
59391;BME280;53405;57.012;40.984;2023-07-09T00:44:22;99801.34;;;17.45;91.76
59391;BME280;53405;57.012;40.984;2023-07-09T00:49:38;99769.69;;;16.95;93.20
59391;BME280;53405;57.012;40.984;2023-07-09T00:52:24;99791.03;;;16.88;94.54
59391;BME280;53405;57.012;40.984;2023-07-09T00:54:57;99786.13;;;17.04;93.75
59391;BME280;53405;57.012;40.984;2023-07-09T00:57:27;99794.22;;;16.97;94.07
59391;BME280;53405;57.012;40.984;2023-07-09T01:00:03;99787.94;;;16.91;94.18
59391;BME280;53405;57.012;40.984;2023-07-09T01:02:41;99786.03;;;17.10;93.49
59391;BME280;53405;57.012;40.984;2023-07-09T01:05:13;99782.88;;;17.20;92.99
59391;BME280;53405;57.012;40.984;2023-07-09T01:07:49;99790.13;;;17.25;92.38
59391;BME280;53405;57.012;40.984;2023-07-09T01:10:17;99794.66;;;17.24;92.29
59391;BME280;53405;57.012;40.984;2023-07-09T01:12:48;99792.78;;;17.25;92.39
59391;BME280;53405;57.012;40.984;2023-07-09T01:15:17;99787.84;;;17.28;92.43
59391;BME280;53405;57.012;40.984;2023-07-09T01:17:44;99788.22;;;17.32;91.86
59391;BME280;53405;57.012;40.984;2023-07-09T01:20:17;99791.91;;;17.31;91.97
59391;BME280;53405;57.012;40.984;2023-07-09T01:22:49;99793.00;;;17.11;92.79
59391;BME280;53405;57.012;40.984;2023-07-09T01:25:17;99794.00;;;16.98;93.26
59391;BME280;53405;57.012;40.984;2023-07-09T01:27:46;99800.47;;;17.03;93.62
59391;BME280;53405;57.012;40.984;2023-07-09T01:30:19;99795.88;;;17.10;92.13
59391;BME280;53405;57.012;40.984;2023-07-09T01:32:51;99795.34;;;17.20;91.79
59391;BME280;53405;57.012;40.984;2023-07-09T01:35:20;99800.44;;;17.21;91.44
59391;BME280;53405;57.012;40.984;2023-07-09T01:37:49;99783.38;;;17.10;91.49
59391;BME280;53405;57.012;40.984;2023-07-09T01:40:19;99799.19;;;17.24;91.50
59391;BME280;53405;57.012;40.984;2023-07-09T01:42:56;99795.72;;;17.23;91.36
59391;BME280;53405;57.012;40.984;2023-07-09T01:45:27;99789.88;;;17.14;91.34
59391;BME280;53405;57.012;40.984;2023-07-09T01:47:56;99790.41;;;17.23;91.38
59391;BME280;53405;57.012;40.984;2023-07-09T01:50:24;99798.59;;;17.22;91.74
59391;BME280;53405;57.012;40.984;2023-07-09T01:52:57;99795.00;;;17.28;91.44
59391;BME280;53405;57.012;40.984;2023-07-09T01:55:26;99792.50;;;17.33;91.17
59391;BME280;53405;57.012;40.984;2023-07-09T01:57:54;99794.31;;;17.32;91.25
59391;BME280;53405;57.012;40.984;2023-07-09T02:00:22;99784.50;;;17.33;91.31
59391;BME280;53405;57.012;40.984;2023-07-09T02:02:49;99787.75;;;17.35;91.05
59391;BME280;53405;57.012;40.984;2023-07-09T02:05:19;99787.53;;;17.37;91.58
59391;BME280;53405;57.012;40.984;2023-07-09T02:07:47;99784.19;;;17.41;90.99
59391;BME280;53405;57.012;40.984;2023-07-09T02:10:17;99778.19;;;17.46;90.92
59391;BME280;53405;57.012;40.984;2023-07-09T02:12:47;99780.72;;;17.52;90.54
59391;BME280;53405;57.012;40.984;2023-07-09T02:15:16;99771.94;;;17.52;89.94
59391;BME280;53405;57.012;40.984;2023-07-09T02:17:45;99778.28;;;17.51;90.36
59391;BME280;53405;57.012;40.984;2023-07-09T02:20:13;99766.25;;;17.37;90.29
59391;BME280;53405;57.012;40.984;2023-07-09T02:22:41;99776.81;;;17.55;89.57
59391;BME280;53405;57.012;40.984;2023-07-09T02:25:09;99744.50;;;17.40;89.42
59391;BME280;53405;57.012;40.984;2023-07-09T02:27:38;99776.69;;;17.62;88.44
59391;BME280;53405;57.012;40.984;2023-07-09T02:30:09;99773.75;;;17.40;89.23
59391;BME280;53405;57.012;40.984;2023-07-09T02:32:38;99771.00;;;17.46;88.67
59391;BME280;53405;57.012;40.984;2023-07-09T02:35:06;99770.88;;;17.53;88.45
59391;BME280;53405;57.012;40.984;2023-07-09T02:37:34;99764.53;;;17.54;88.46
59391;BME280;53405;57.012;40.984;2023-07-09T02:40:03;99767.00;;;17.67;87.15
59391;BME280;53405;57.012;40.984;2023-07-09T02:42:31;99766.03;;;17.74;86.55
59391;BME280;53405;57.012;40.984;2023-07-09T02:44:59;99766.88;;;17.74;86.53
59391;BME280;53405;57.012;40.984;2023-07-09T02:47:30;99759.47;;;17.76;85.87
59391;BME280;53405;57.012;40.984;2023-07-09T02:49:59;99759.34;;;17.71;85.61
59391;BME280;53405;57.012;40.984;2023-07-09T02:52:27;99763.28;;;17.80;85.52
59391;BME280;53405;57.012;40.984;2023-07-09T02:54:54;99766.31;;;17.84;85.58
59391;BME280;53405;57.012;40.984;2023-07-09T02:57:22;99768.72;;;17.85;85.14
59391;BME280;53405;57.012;40.984;2023-07-09T02:59:49;99768.41;;;17.94;84.94
59391;BME280;53405;57.012;40.984;2023-07-09T03:02:17;99765.19;;;17.92;85.15
59391;BME280;53405;57.012;40.984;2023-07-09T03:04:45;99767.38;;;17.95;84.42
59391;BME280;53405;57.012;40.984;2023-07-09T03:07:13;99769.81;;;17.96;83.09
59391;BME280;53405;57.012;40.984;2023-07-09T03:09:40;99762.97;;;18.00;83.18
59391;BME280;53405;57.012;40.984;2023-07-09T03:12:08;99762.84;;;17.95;83.63
59391;BME280;53405;57.012;40.984;2023-07-09T03:14:36;99767.25;;;18.01;82.67
59391;BME280;53405;57.012;40.984;2023-07-09T03:17:04;99745.00;;;17.84;82.73
59391;BME280;53405;57.012;40.984;2023-07-09T03:19:31;99764.59;;;18.01;82.25
59391;BME280;53405;57.012;40.984;2023-07-09T03:22:00;99760.53;;;17.99;81.73
59391;BME280;53405;57.012;40.984;2023-07-09T03:24:28;99769.69;;;18.03;82.08
59391;BME280;53405;57.012;40.984;2023-07-09T03:26:56;99769.91;;;18.01;82.24
59391;BME280;53405;57.012;40.984;2023-07-09T03:29:24;99758.31;;;17.96;81.77
59391;BME280;53405;57.012;40.984;2023-07-09T03:31:52;99769.25;;;17.94;82.19
59391;BME280;53405;57.012;40.984;2023-07-09T03:34:19;99770.91;;;17.77;81.77
59391;BME280;53405;57.012;40.984;2023-07-09T03:36:47;99766.63;;;17.87;81.55
59391;BME280;53405;57.012;40.984;2023-07-09T03:39:14;99754.13;;;17.76;81.74
59391;BME280;53405;57.012;40.984;2023-07-09T03:41:42;99771.16;;;17.87;81.87
59391;BME280;53405;57.012;40.984;2023-07-09T03:44:10;99764.94;;;17.93;81.05
59391;BME280;53405;57.012;40.984;2023-07-09T03:46:38;99764.31;;;17.79;81.18
59391;BME280;53405;57.012;40.984;2023-07-09T03:49:06;99772.19;;;17.86;81.16
59391;BME280;53405;57.012;40.984;2023-07-09T03:51:34;99773.16;;;18.03;80.08
59391;BME280;53405;57.012;40.984;2023-07-09T03:54:02;99781.97;;;18.16;79.13
59391;BME280;53405;57.012;40.984;2023-07-09T03:56:29;99767.81;;;18.03;80.01
59391;BME280;53405;57.012;40.984;2023-07-09T03:58:57;99768.16;;;18.19;78.93
59391;BME280;53405;57.012;40.984;2023-07-09T04:01:25;99773.75;;;18.05;77.98
59391;BME280;53405;57.012;40.984;2023-07-09T04:03:52;99781.63;;;18.12;77.80
59391;BME280;53405;57.012;40.984;2023-07-09T04:06:20;99768.63;;;18.28;77.89
59391;BME280;53405;57.012;40.984;2023-07-09T04:08:47;99772.34;;;18.38;76.88
59391;BME280;53405;57.012;40.984;2023-07-09T04:11:15;99762.00;;;18.42;76.50
59391;BME280;53405;57.012;40.984;2023-07-09T04:13:42;99761.88;;;18.49;76.33
59391;BME280;53405;57.012;40.984;2023-07-09T04:16:10;99759.53;;;18.52;76.70
59391;BME280;53405;57.012;40.984;2023-07-09T04:18:38;99760.91;;;18.67;76.03
59391;BME280;53405;57.012;40.984;2023-07-09T04:21:05;99757.16;;;18.80;75.61
59391;BME280;53405;57.012;40.984;2023-07-09T04:23:33;99758.66;;;18.87;72.91
59391;BME280;53405;57.012;40.984;2023-07-09T04:26:00;99761.75;;;18.96;72.99
59391;BME280;53405;57.012;40.984;2023-07-09T04:28:30;99756.31;;;18.91;74.28
59391;BME280;53405;57.012;40.984;2023-07-09T04:30:58;99756.50;;;19.01;74.34
59391;BME280;53405;57.012;40.984;2023-07-09T04:33:27;99756.69;;;19.11;74.07
59391;BME280;53405;57.012;40.984;2023-07-09T04:35:55;99765.94;;;19.21;73.31
59391;BME280;53405;57.012;40.984;2023-07-09T04:38:23;99757.44;;;19.24;73.25
59391;BME280;53405;57.012;40.984;2023-07-09T04:40:50;99760.84;;;19.36;72.75
59391;BME280;53405;57.012;40.984;2023-07-09T04:43:18;99762.31;;;19.27;73.47
59391;BME280;53405;57.012;40.984;2023-07-09T04:45:46;99764.09;;;19.38;73.50
59391;BME280;53405;57.012;40.984;2023-07-09T04:48:13;99763.91;;;19.45;73.15
59391;BME280;53405;57.012;40.984;2023-07-09T04:50:43;99759.97;;;19.47;72.36
59391;BME280;53405;57.012;40.984;2023-07-09T04:53:11;99750.81;;;19.60;71.26
59391;BME280;53405;57.012;40.984;2023-07-09T04:55:39;99751.06;;;19.76;70.47
59391;BME280;53405;57.012;40.984;2023-07-09T04:58:06;99752.31;;;19.85;70.12
59391;BME280;53405;57.012;40.984;2023-07-09T05:00:34;99741.75;;;19.95;70.48
59391;BME280;53405;57.012;40.984;2023-07-09T05:03:02;99749.75;;;19.95;70.54
59391;BME280;53405;57.012;40.984;2023-07-09T05:05:29;99737.28;;;20.01;70.90
59391;BME280;53405;57.012;40.984;2023-07-09T05:07:57;99734.44;;;20.08;70.29
59391;BME280;53405;57.012;40.984;2023-07-09T05:10:24;99734.88;;;20.21;69.36
59391;BME280;53405;57.012;40.984;2023-07-09T05:12:54;99734.94;;;20.27;68.27
59391;BME280;53405;57.012;40.984;2023-07-09T05:15:22;99730.53;;;20.37;67.97
59391;BME280;53405;57.012;40.984;2023-07-09T05:17:50;99719.69;;;20.49;68.23
59391;BME280;53405;57.012;40.984;2023-07-09T05:20:17;99728.91;;;20.58;67.30
59391;BME280;53405;57.012;40.984;2023-07-09T05:22:45;99719.66;;;20.66;64.00
59391;BME280;53405;57.012;40.984;2023-07-09T05:25:12;99726.97;;;20.76;65.13
59391;BME280;53405;57.012;40.984;2023-07-09T05:27:40;99715.72;;;20.74;65.62
59391;BME280;53405;57.012;40.984;2023-07-09T05:30:08;99712.38;;;20.89;63.11
59391;BME280;53405;57.012;40.984;2023-07-09T05:32:37;99701.75;;;20.94;63.74
59391;BME280;53405;57.012;40.984;2023-07-09T05:35:10;99711.75;;;21.04;60.52
59391;BME280;53405;57.012;40.984;2023-07-09T05:37:38;99680.59;;;20.92;58.79
59391;BME280;53405;57.012;40.984;2023-07-09T05:40:07;99696.84;;;21.13;57.02
59391;BME280;53405;57.012;40.984;2023-07-09T05:42:36;99715.06;;;21.16;55.21
59391;BME280;53405;57.012;40.984;2023-07-09T05:45:04;99702.72;;;21.15;54.94
59391;BME280;53405;57.012;40.984;2023-07-09T05:47:32;99700.09;;;21.20;56.06
59391;BME280;53405;57.012;40.984;2023-07-09T05:50:00;99703.66;;;21.31;56.39
59391;BME280;53405;57.012;40.984;2023-07-09T05:52:30;99697.53;;;21.36;58.13
59391;BME280;53405;57.012;40.984;2023-07-09T05:54:58;99706.19;;;21.43;58.26
59391;BME280;53405;57.012;40.984;2023-07-09T05:57:26;99702.78;;;21.53;57.67
59391;BME280;53405;57.012;40.984;2023-07-09T05:59:54;99713.28;;;21.59;55.44
59391;BME280;53405;57.012;40.984;2023-07-09T06:02:22;99707.44;;;21.68;56.81
59391;BME280;53405;57.012;40.984;2023-07-09T06:04:50;99708.53;;;21.72;54.21
59391;BME280;53405;57.012;40.984;2023-07-09T06:07:18;99699.97;;;21.75;55.05
59391;BME280;53405;57.012;40.984;2023-07-09T06:09:46;99699.75;;;21.81;55.02
59391;BME280;53405;57.012;40.984;2023-07-09T06:12:13;99698.72;;;21.93;55.72
59391;BME280;53405;57.012;40.984;2023-07-09T06:14:41;99696.63;;;22.00;55.52
59391;BME280;53405;57.012;40.984;2023-07-09T06:17:09;99696.63;;;22.00;55.41
59391;BME280;53405;57.012;40.984;2023-07-09T06:19:37;99703.06;;;22.04;52.99
59391;BME280;53405;57.012;40.984;2023-07-09T06:22:05;99700.63;;;21.97;52.28
59391;BME280;53405;57.012;40.984;2023-07-09T06:24:33;99704.13;;;21.98;52.23
59391;BME280;53405;57.012;40.984;2023-07-09T06:27:00;99701.75;;;22.01;55.41
59391;BME280;53405;57.012;40.984;2023-07-09T06:29:27;99701.78;;;22.12;54.31
59391;BME280;53405;57.012;40.984;2023-07-09T06:31:55;99707.13;;;22.12;55.22
59391;BME280;53405;57.012;40.984;2023-07-09T06:34:23;99706.84;;;22.08;55.84
59391;BME280;53405;57.012;40.984;2023-07-09T06:36:50;99703.47;;;22.28;55.40
59391;BME280;53405;57.012;40.984;2023-07-09T06:39:18;99709.44;;;22.41;54.35
59391;BME280;53405;57.012;40.984;2023-07-09T06:41:46;99708.41;;;22.52;54.84
59391;BME280;53405;57.012;40.984;2023-07-09T06:44:33;99710.81;;;22.53;53.66
59391;BME280;53405;57.012;40.984;2023-07-09T06:47:01;99707.63;;;22.57;54.28
59391;BME280;53405;57.012;40.984;2023-07-09T06:49:29;99701.47;;;22.77;52.33
59391;BME280;53405;57.012;40.984;2023-07-09T06:51:56;99702.03;;;22.84;52.01
59391;BME280;53405;57.012;40.984;2023-07-09T06:54:24;99673.84;;;22.76;51.54
59391;BME280;53405;57.012;40.984;2023-07-09T06:56:52;99696.38;;;22.85;52.51
59391;BME280;53405;57.012;40.984;2023-07-09T06:59:20;99705.06;;;23.13;51.02
59391;BME280;53405;57.012;40.984;2023-07-09T07:01:47;99697.47;;;23.00;47.28
59391;BME280;53405;57.012;40.984;2023-07-09T07:04:15;99699.88;;;23.06;49.14
59391;BME280;53405;57.012;40.984;2023-07-09T07:06:44;99685.94;;;23.04;48.10
59391;BME280;53405;57.012;40.984;2023-07-09T07:09:12;99692.63;;;22.97;50.57
59391;BME280;53405;57.012;40.984;2023-07-09T07:11:40;99704.78;;;23.15;47.07
59391;BME280;53405;57.012;40.984;2023-07-09T07:14:08;99705.03;;;23.23;47.86
59391;BME280;53405;57.012;40.984;2023-07-09T07:16:35;99702.09;;;23.15;47.58
59391;BME280;53405;57.012;40.984;2023-07-09T07:19:03;99696.16;;;23.07;44.47
59391;BME280;53405;57.012;40.984;2023-07-09T07:21:30;99703.38;;;22.86;48.06
59391;BME280;53405;57.012;40.984;2023-07-09T07:23:58;99685.38;;;22.87;49.59
59391;BME280;53405;57.012;40.984;2023-07-09T07:26:26;99689.16;;;22.96;48.78
59391;BME280;53405;57.012;40.984;2023-07-09T07:28:53;99698.88;;;23.18;48.52
59391;BME280;53405;57.012;40.984;2023-07-09T07:31:21;99686.22;;;23.23;47.89
59391;BME280;53405;57.012;40.984;2023-07-09T07:33:48;99687.03;;;23.34;47.10
59391;BME280;53405;57.012;40.984;2023-07-09T07:36:16;99682.22;;;23.41;48.56
59391;BME280;53405;57.012;40.984;2023-07-09T07:38:47;99685.69;;;23.57;47.86
59391;BME280;53405;57.012;40.984;2023-07-09T07:41:14;99691.84;;;23.68;47.56
59391;BME280;53405;57.012;40.984;2023-07-09T07:43:42;99687.28;;;23.63;49.35
59391;BME280;53405;57.012;40.984;2023-07-09T07:46:09;99661.69;;;23.71;48.59
59391;BME280;53405;57.012;40.984;2023-07-09T07:48:37;99688.56;;;23.87;49.65
59391;BME280;53405;57.012;40.984;2023-07-09T07:51:05;99686.47;;;23.58;46.91
59391;BME280;53405;57.012;40.984;2023-07-09T07:53:32;99671.22;;;23.27;49.82
59391;BME280;53405;57.012;40.984;2023-07-09T07:56:00;99684.91;;;23.11;49.65
59391;BME280;53405;57.012;40.984;2023-07-09T07:58:31;99675.75;;;22.96;49.50
59391;BME280;53405;57.012;40.984;2023-07-09T08:00:59;99671.97;;;22.92;50.26
59391;BME280;53405;57.012;40.984;2023-07-09T08:03:27;99673.59;;;22.98;50.31
59391;BME280;53405;57.012;40.984;2023-07-09T08:05:55;99669.25;;;22.77;52.23
59391;BME280;53405;57.012;40.984;2023-07-09T08:08:23;99651.81;;;22.59;52.33
59391;BME280;53405;57.012;40.984;2023-07-09T08:10:51;99678.13;;;22.87;51.44
59391;BME280;53405;57.012;40.984;2023-07-09T08:13:19;99671.97;;;23.07;48.87
59391;BME280;53405;57.012;40.984;2023-07-09T08:15:53;99666.38;;;23.24;48.33
59391;BME280;53405;57.012;40.984;2023-07-09T08:18:20;99658.84;;;23.37;46.75
59391;BME280;53405;57.012;40.984;2023-07-09T08:20:48;99664.72;;;23.44;47.02
59391;BME280;53405;57.012;40.984;2023-07-09T08:23:20;99666.06;;;23.36;50.83
59391;BME280;53405;57.012;40.984;2023-07-09T08:25:59;99672.19;;;23.68;50.39
59391;BME280;53405;57.012;40.984;2023-07-09T08:28:31;99665.94;;;23.98;49.65
59391;BME280;53405;57.012;40.984;2023-07-09T08:30:59;99665.34;;;24.16;48.36
59391;BME280;53405;57.012;40.984;2023-07-09T08:33:27;99672.56;;;24.26;49.56
59391;BME280;53405;57.012;40.984;2023-07-09T08:35:54;99672.50;;;24.37;44.77
59391;BME280;53405;57.012;40.984;2023-07-09T08:38:23;99668.28;;;24.25;45.83
59391;BME280;53405;57.012;40.984;2023-07-09T08:40:56;99665.78;;;24.34;44.38
59391;BME280;53405;57.012;40.984;2023-07-09T08:46:50;99658.09;;;24.12;46.90
59391;BME280;53405;57.012;40.984;2023-07-09T08:49:33;99660.81;;;24.62;46.07
59391;BME280;53405;57.012;40.984;2023-07-09T08:52:05;99655.91;;;25.09;44.91
59391;BME280;53405;57.012;40.984;2023-07-09T08:54:37;99664.56;;;25.05;45.05
59391;BME280;53405;57.012;40.984;2023-07-09T08:57:17;99668.25;;;24.80;45.55
59391;BME280;53405;57.012;40.984;2023-07-09T08:59:47;99658.38;;;24.65;44.33
59391;BME280;53405;57.012;40.984;2023-07-09T09:02:18;99656.00;;;24.59;44.28
59391;BME280;53405;57.012;40.984;2023-07-09T09:04:50;99647.56;;;24.70;47.34
59391;BME280;53405;57.012;40.984;2023-07-09T09:07:37;99650.53;;;25.09;45.32
59391;BME280;53405;57.012;40.984;2023-07-09T09:10:18;99647.84;;;25.03;43.44
59391;BME280;53405;57.012;40.984;2023-07-09T09:13:05;99656.19;;;24.73;43.17
59391;BME280;53405;57.012;40.984;2023-07-09T09:15:33;99646.84;;;24.54;43.57
59391;BME280;53405;57.012;40.984;2023-07-09T09:20:42;99642.09;;;25.15;43.61
59391;BME280;53405;57.012;40.984;2023-07-09T09:23:14;99640.03;;;25.07;43.01
59391;BME280;53405;57.012;40.984;2023-07-09T09:25:51;99637.09;;;25.03;45.68
59391;BME280;53405;57.012;40.984;2023-07-09T09:28:27;99633.66;;;24.98;44.49
59391;BME280;53405;57.012;40.984;2023-07-09T09:30:54;99616.25;;;24.85;44.03
59391;BME280;53405;57.012;40.984;2023-07-09T09:33:22;99632.03;;;24.62;43.69
59391;BME280;53405;57.012;40.984;2023-07-09T09:36:02;99637.22;;;24.43;45.13
59391;BME280;53405;57.012;40.984;2023-07-09T09:38:35;99636.47;;;24.32;47.01
59391;BME280;53405;57.012;40.984;2023-07-09T09:41:03;99628.97;;;24.29;44.16
59391;BME280;53405;57.012;40.984;2023-07-09T09:43:42;99607.34;;;23.95;48.27
59391;BME280;53405;57.012;40.984;2023-07-09T09:46:17;99623.69;;;24.14;44.42
59391;BME280;53405;57.012;40.984;2023-07-09T09:48:47;99624.69;;;24.28;44.44
59391;BME280;53405;57.012;40.984;2023-07-09T09:51:17;99627.81;;;24.85;46.39
59391;BME280;53405;57.012;40.984;2023-07-09T09:53:50;99623.06;;;25.06;44.38
59391;BME280;53405;57.012;40.984;2023-07-09T09:56:28;99628.53;;;25.25;43.44
59391;BME280;53405;57.012;40.984;2023-07-09T09:58:57;99617.13;;;25.39;41.72
59391;BME280;53405;57.012;40.984;2023-07-09T10:01:32;99612.06;;;25.03;44.67
59391;BME280;53405;57.012;40.984;2023-07-09T10:04:04;99612.00;;;25.08;42.78
59391;BME280;53405;57.012;40.984;2023-07-09T10:06:45;99607.16;;;25.10;43.42
59391;BME280;53405;57.012;40.984;2023-07-09T10:09:50;99613.03;;;25.41;42.78
59391;BME280;53405;57.012;40.984;2023-07-09T10:17:42;99610.81;;;25.19;42.15
59391;BME280;53405;57.012;40.984;2023-07-09T10:20:38;99610.31;;;24.88;45.55
59391;BME280;53405;57.012;40.984;2023-07-09T10:25:54;99571.34;;;24.41;45.90
59391;BME280;53405;57.012;40.984;2023-07-09T10:31:10;99610.56;;;24.02;46.79
59391;BME280;53405;57.012;40.984;2023-07-09T10:39:38;99602.34;;;24.73;46.13
59391;BME280;53405;57.012;40.984;2023-07-09T10:42:21;99598.59;;;24.68;44.20
59391;BME280;53405;57.012;40.984;2023-07-09T10:45:01;99594.63;;;24.56;43.79
59391;BME280;53405;57.012;40.984;2023-07-09T10:47:43;99594.13;;;24.48;46.40
59391;BME280;53405;57.012;40.984;2023-07-09T10:50:30;99594.91;;;24.54;45.57
59391;BME280;53405;57.012;40.984;2023-07-09T10:53:09;99575.56;;;24.52;43.37
59391;BME280;53405;57.012;40.984;2023-07-09T10:56:10;99589.13;;;24.76;44.08
59391;BME280;53405;57.012;40.984;2023-07-09T10:58:41;99596.47;;;25.00;41.86
59391;BME280;53405;57.012;40.984;2023-07-09T11:01:14;99595.56;;;24.80;41.90
59391;BME280;53405;57.012;40.984;2023-07-09T11:03:50;99562.34;;;24.56;42.62
59391;BME280;53405;57.012;40.984;2023-07-09T11:06:50;99590.06;;;24.61;44.96
59391;BME280;53405;57.012;40.984;2023-07-09T11:09:35;99582.97;;;24.70;44.91
59391;BME280;53405;57.012;40.984;2023-07-09T11:12:34;99578.28;;;24.81;42.78
59391;BME280;53405;57.012;40.984;2023-07-09T11:15:09;99578.59;;;24.80;45.13
59391;BME280;53405;57.012;40.984;2023-07-09T11:18:22;99587.31;;;25.01;44.70
59391;BME280;53405;57.012;40.984;2023-07-09T11:20:58;99591.47;;;24.83;42.63
59391;BME280;53405;57.012;40.984;2023-07-09T11:31:39;99578.47;;;24.61;43.10
59391;BME280;53405;57.012;40.984;2023-07-09T11:34:10;99573.75;;;24.82;42.36
59391;BME280;53405;57.012;40.984;2023-07-09T11:39:26;99578.22;;;24.92;42.83
59391;BME280;53405;57.012;40.984;2023-07-09T11:41:55;99571.13;;;25.01;42.52
59391;BME280;53405;57.012;40.984;2023-07-09T11:44:29;99572.22;;;25.00;40.83
59391;BME280;53405;57.012;40.984;2023-07-09T11:52:25;99524.78;;;24.40;42.54
59391;BME280;53405;57.012;40.984;2023-07-09T11:54:54;99553.78;;;24.83;42.28
59391;BME280;53405;57.012;40.984;2023-07-09T11:57:21;99550.59;;;25.10;41.66
59391;BME280;53405;57.012;40.984;2023-07-09T11:59:49;99540.66;;;25.05;41.57
59391;BME280;53405;57.012;40.984;2023-07-09T12:02:20;99530.97;;;24.75;42.92
59391;BME280;53405;57.012;40.984;2023-07-09T12:04:51;99550.94;;;24.69;43.23
59391;BME280;53405;57.012;40.984;2023-07-09T12:07:22;99555.34;;;24.60;45.79
59391;BME280;53405;57.012;40.984;2023-07-09T12:09:53;99545.66;;;24.59;43.57
59391;BME280;53405;57.012;40.984;2023-07-09T12:12:24;99550.44;;;24.67;43.12
59391;BME280;53405;57.012;40.984;2023-07-09T12:14:52;99544.88;;;24.58;42.02
59391;BME280;53405;57.012;40.984;2023-07-09T12:17:23;99541.38;;;24.52;43.12
59391;BME280;53405;57.012;40.984;2023-07-09T12:19:54;99539.88;;;24.76;44.67
59391;BME280;53405;57.012;40.984;2023-07-09T12:22:22;99542.31;;;25.01;44.56
59391;BME280;53405;57.012;40.984;2023-07-09T12:24:50;99537.91;;;25.11;42.42
59391;BME280;53405;57.012;40.984;2023-07-09T12:27:23;99536.69;;;24.98;42.37
59391;BME280;53405;57.012;40.984;2023-07-09T12:29:54;99530.78;;;24.96;41.10
59391;BME280;53405;57.012;40.984;2023-07-09T12:32:22;99533.88;;;24.84;41.61
59391;BME280;53405;57.012;40.984;2023-07-09T12:34:56;99529.13;;;24.70;42.01
59391;BME280;53405;57.012;40.984;2023-07-09T12:37:25;99512.91;;;24.46;44.14
59391;BME280;53405;57.012;40.984;2023-07-09T12:39:59;99519.31;;;24.50;41.55
59391;BME280;53405;57.012;40.984;2023-07-09T12:42:34;99518.00;;;24.48;40.01
59391;BME280;53405;57.012;40.984;2023-07-09T12:45:03;99527.69;;;24.44;40.29
59391;BME280;53405;57.012;40.984;2023-07-09T12:47:32;99523.97;;;24.40;40.34
59391;BME280;53405;57.012;40.984;2023-07-09T12:50:01;99529.69;;;24.33;41.14
59391;BME280;53405;57.012;40.984;2023-07-09T12:52:29;99535.06;;;24.33;41.68
59391;BME280;53405;57.012;40.984;2023-07-09T12:54:59;99530.25;;;24.30;43.16
59391;BME280;53405;57.012;40.984;2023-07-09T12:57:27;99532.69;;;24.26;42.57
59391;BME280;53405;57.012;40.984;2023-07-09T12:59:55;99530.34;;;24.14;42.39
59391;BME280;53405;57.012;40.984;2023-07-09T13:02:28;99518.84;;;24.04;42.72
59391;BME280;53405;57.012;40.984;2023-07-09T13:05:05;99528.81;;;23.98;42.52
59391;BME280;53405;57.012;40.984;2023-07-09T13:07:38;99521.91;;;23.87;42.27
59391;BME280;53405;57.012;40.984;2023-07-09T13:12:48;99513.31;;;23.85;43.74
59391;BME280;53405;57.012;40.984;2023-07-09T13:15:21;99515.47;;;23.77;43.72
59391;BME280;53405;57.012;40.984;2023-07-09T13:17:49;99515.75;;;23.81;44.09
59391;BME280;53405;57.012;40.984;2023-07-09T13:20:17;99506.34;;;23.78;43.54
59391;BME280;53405;57.012;40.984;2023-07-09T13:22:45;99506.34;;;23.78;43.55
59391;BME280;53405;57.012;40.984;2023-07-09T13:25:13;99502.03;;;23.77;46.42
59391;BME280;53405;57.012;40.984;2023-07-09T13:27:40;99511.94;;;23.82;44.27
59391;BME280;53405;57.012;40.984;2023-07-09T13:30:09;99509.00;;;23.84;43.88
59391;BME280;53405;57.012;40.984;2023-07-09T13:32:38;99502.56;;;23.79;42.67
59391;BME280;53405;57.012;40.984;2023-07-09T13:35:24;99478.25;;;23.50;42.73
59391;BME280;53405;57.012;40.984;2023-07-09T13:37:53;99501.84;;;23.58;43.24
59391;BME280;53405;57.012;40.984;2023-07-09T13:40:20;99493.78;;;23.58;43.51
59391;BME280;53405;57.012;40.984;2023-07-09T13:42:48;99485.50;;;23.55;44.01
59391;BME280;53405;57.012;40.984;2023-07-09T13:45:23;99498.88;;;23.60;44.19
59391;BME280;53405;57.012;40.984;2023-07-09T13:47:52;99489.25;;;23.54;47.45
59391;BME280;53405;57.012;40.984;2023-07-09T13:50:20;99486.00;;;23.62;44.37
59391;BME280;53405;57.012;40.984;2023-07-09T13:52:56;99486.53;;;23.64;44.83